Time;durP1;ratioP1;P1;durP2;ratioP2;P2;SDS_P1;SDS_P2;PMS_P1;PMS_P2;Temp;Humidity;BMP_temperature;BMP_pressure;BME280_temperature;BME280_humidity;BME280_pressure;Samples;Min_cycle;Max_cycle;Signal;HPM_P1;HPM_P2
2023/01/14 00:00:54;;;;;;;15.43;3.42;;;;;;;;;;8251981;28;20471;-73
2023/01/14 00:04:54;;;;;;;11.63;2.45;;;;;;;;;;8259551;28;20057;-72
2023/01/14 00:08:55;;;;;;;12.20;2.55;;;;;;;;;;8259522;28;20029;-72
2023/01/14 00:12:55;;;;;;;11.27;2.30;;;;;;;;;;8260232;28;21272;-72
2023/01/14 00:16:56;;;;;;;11.75;2.53;;;;;;;;;;8259741;28;20040;-72
2023/01/14 00:20:58;;;;;;;9.73;2.45;;;;;;;;;;8258807;28;20024;-72
2023/01/14 00:24:58;;;;;;;14.75;2.88;;;;;;;;;;8259470;28;20029;-72
2023/01/14 00:28:58;;;;;;;10.93;2.10;;;;;;;;;;8258053;28;20425;-72
2023/01/14 00:32:58;;;;;;;11.68;2.17;;;;;;;;;;8257527;28;20100;-72
2023/01/14 00:36:59;;;;;;;11.80;2.13;;;;;;;;;;8259132;28;20026;-72
2023/01/14 00:41:00;;;;;;;13.07;2.03;;;;;;;;;;8258980;28;20026;-72
2023/01/14 00:45:00;;;;;;;15.52;2.38;;;;;;;;;;8260011;28;21312;-72
2023/01/14 00:49:01;;;;;;;11.88;2.30;;;;;;;;;;8258419;28;20073;-72
2023/01/14 00:53:01;;;;;;;8.60;2.08;;;;;;;;;;8234531;28;20068;-72
2023/01/14 00:57:01;;;;;;;13.20;2.10;;;;;;;;;;8257833;28;20030;-72
2023/01/14 01:01:02;;;;;;;11.93;2.20;;;;;;;;;;8259148;28;20037;-72
2023/01/14 01:05:02;;;;;;;13.13;2.28;;;;;;;;;;8260400;28;20865;-71
2023/01/14 01:09:03;;;;;;;9.40;2.17;;;;;;;;;;8257963;28;20025;-72
2023/01/14 01:13:04;;;;;;;13.50;3.03;;;;;;;;;;8257453;28;20148;-72
2023/01/14 01:17:04;;;;;;;14.88;2.72;;;;;;;;;;8258165;28;20418;-72
2023/01/14 01:21:06;;;;;;;15.18;2.35;;;;;;;;;;8257372;28;20107;-72
2023/01/14 01:25:06;;;;;;;18.27;2.67;;;;;;;;;;8253816;28;20057;-71
2023/01/14 01:29:06;;;;;;;13.25;2.42;;;;;;;;;;8254357;28;20030;-72
2023/01/14 01:33:07;;;;;;;15.13;2.23;;;;;;;;;;8254943;28;20153;-72
2023/01/14 01:37:07;;;;;;;14.85;2.58;;;;;;;;;;8255843;28;20272;-72
2023/01/14 01:41:08;;;;;;;18.60;2.42;;;;;;;;;;8258575;28;20481;-72
2023/01/14 01:45:19;;;;;;;11.88;1.90;;;;;;;;;;8256101;28;20029;-72
2023/01/14 01:49:23;;;;;;;13.00;2.45;;;;;;;;;;8254043;28;20055;-71
2023/01/14 01:53:24;;;;;;;15.27;2.42;;;;;;;;;;8257032;28;20040;-72
2023/01/14 01:57:25;;;;;;;18.42;2.50;;;;;;;;;;8231233;28;20018;-72
2023/01/14 02:01:25;;;;;;;18.25;2.60;;;;;;;;;;8253756;28;20511;-72
2023/01/14 02:05:25;;;;;;;18.40;2.67;;;;;;;;;;8234447;28;20493;-72
2023/01/14 02:09:26;;;;;;;11.30;2.35;;;;;;;;;;8250781;28;20281;-72
2023/01/14 02:13:37;;;;;;;18.80;2.78;;;;;;;;;;8252185;28;20037;-72
2023/01/14 02:17:49;;;;;;;10.40;2.45;;;;;;;;;;8252150;28;20088;-72
2023/01/14 02:22:03;;;;;;;11.32;2.00;;;;;;;;;;8253520;28;20040;-72
2023/01/14 02:26:06;;;;;;;12.45;2.53;;;;;;;;;;8255350;28;20080;-72
2023/01/14 02:30:09;;;;;;;13.15;2.25;;;;;;;;;;8253387;28;20121;-72
2023/01/14 02:34:39;;;;;;;16.17;2.88;;;;;;;;;;8251335;28;20095;-72
2023/01/14 02:38:48;;;;;;;9.00;1.90;;;;;;;;;;8215516;28;20045;-72
2023/01/14 02:47:23;;;;;;;12.45;2.20;;;;;;;;;;8252979;28;21203;-72
2023/01/14 02:51:24;;;;;;;7.70;2.05;;;;;;;;;;8253332;28;20074;-72
2023/01/14 02:55:27;;;;;;;10.90;2.67;;;;;;;;;;8254902;28;20045;-72
2023/01/14 02:59:33;;;;;;;10.13;2.35;;;;;;;;;;8253891;28;20502;-72
2023/01/14 03:03:56;;;;;;;11.73;2.55;;;;;;;;;;8253797;28;20046;-72
2023/01/14 03:07:57;;;;;;;8.63;2.35;;;;;;;;;;8234230;28;20030;-72
2023/01/14 03:12:23;;;;;;;12.57;2.05;;;;;;;;;;8252111;28;20041;-72
2023/01/14 03:16:28;;;;;;;13.30;1.98;;;;;;;;;;8228951;28;20153;-72
2023/01/14 03:20:32;;;;;;;11.93;2.50;;;;;;;;;;8235180;28;20156;-72
2023/01/14 03:24:38;;;;;;;11.85;1.90;;;;;;;;;;8235895;28;20057;-72
2023/01/14 03:28:40;;;;;;;10.13;2.05;;;;;;;;;;8252806;28;20026;-72
2023/01/14 03:32:53;;;;;;;13.13;2.10;;;;;;;;;;8234587;28;20468;-72
2023/01/14 03:36:56;;;;;;;10.98;2.42;;;;;;;;;;8249723;28;20040;-71
2023/01/14 03:40:57;;;;;;;12.90;2.20;;;;;;;;;;8253242;28;20026;-72
2023/01/14 03:45:30;;;;;;;6.32;1.85;;;;;;;;;;8233349;28;20026;-72
2023/01/14 03:49:30;;;;;;;13.52;2.80;;;;;;;;;;8207397;28;20148;-72
2023/01/14 03:53:34;;;;;;;13.77;2.58;;;;;;;;;;8233507;28;20906;-72
2023/01/14 03:57:43;;;;;;;9.77;2.20;;;;;;;;;;8251953;28;20022;-72
2023/01/14 04:01:51;;;;;;;10.18;2.03;;;;;;;;;;8252922;28;20034;-72
2023/01/14 04:05:52;;;;;;;13.52;2.00;;;;;;;;;;8253617;28;20076;-72
2023/01/14 04:09:52;;;;;;;18.67;2.97;;;;;;;;;;8250824;28;20021;-72
2023/01/14 04:18:11;;;;;;;15.07;2.35;;;;;;;;;;8251939;28;20040;-72
2023/01/14 04:22:12;;;;;;;12.48;2.08;;;;;;;;;;8252726;28;20030;-72
2023/01/14 04:26:12;;;;;;;10.35;2.50;;;;;;;;;;8252273;28;21059;-72
2023/01/14 04:30:12;;;;;;;17.20;2.67;;;;;;;;;;8252130;28;20727;-73
2023/01/14 04:34:12;;;;;;;14.52;2.45;;;;;;;;;;8252755;28;20500;-72
2023/01/14 04:38:12;;;;;;;14.15;2.17;;;;;;;;;;8252415;28;20014;-72
2023/01/14 04:42:28;;;;;;;12.15;2.70;;;;;;;;;;8251122;28;20025;-72
2023/01/14 04:46:28;;;;;;;12.95;2.63;;;;;;;;;;8251827;28;20062;-72
2023/01/14 04:50:33;;;;;;;12.93;3.20;;;;;;;;;;8235510;28;20096;-72
2023/01/14 04:54:33;;;;;;;11.35;2.28;;;;;;;;;;8258620;28;20288;-72
2023/01/14 04:58:34;;;;;;;9.07;2.67;;;;;;;;;;8256591;28;20026;-72
2023/01/14 05:02:34;;;;;;;11.70;2.83;;;;;;;;;;8256792;28;20490;-72
2023/01/14 05:06:34;;;;;;;11.48;2.20;;;;;;;;;;8258321;28;20319;-72
2023/01/14 05:10:35;;;;;;;14.88;2.55;;;;;;;;;;8258302;28;20144;-72
2023/01/14 05:14:35;;;;;;;12.63;2.70;;;;;;;;;;8229403;28;20033;-73
2023/01/14 05:18:35;;;;;;;19.63;3.58;;;;;;;;;;8256915;28;20041;-72
2023/01/14 05:22:35;;;;;;;10.10;2.78;;;;;;;;;;8256709;28;20290;-72
2023/01/14 05:26:35;;;;;;;11.10;2.33;;;;;;;;;;8239355;28;20117;-72
2023/01/14 05:30:36;;;;;;;19.95;4.28;;;;;;;;;;8244203;28;20041;-72
2023/01/14 05:34:36;;;;;;;14.07;2.97;;;;;;;;;;8255438;28;20030;-72
2023/01/14 05:38:36;;;;;;;12.85;2.80;;;;;;;;;;8235409;28;20014;-72
2023/01/14 05:46:55;;;;;;;12.35;2.42;;;;;;;;;;8257406;28;20079;-72
2023/01/14 05:50:56;;;;;;;12.27;2.72;;;;;;;;;;8254527;28;20124;-72
2023/01/14 05:54:56;;;;;;;16.30;2.95;;;;;;;;;;8256413;28;20034;-72
2023/01/14 05:58:56;;;;;;;12.40;2.45;;;;;;;;;;8254252;28;20949;-72
2023/01/14 06:07:15;;;;;;;15.60;2.83;;;;;;;;;;8256955;28;20864;-72
2023/01/14 06:11:18;;;;;;;9.30;2.72;;;;;;;;;;8255966;28;20021;-72
2023/01/14 06:15:18;;;;;;;15.90;2.67;;;;;;;;;;8255919;28;20587;-72
2023/01/14 06:19:18;;;;;;;9.50;2.10;;;;;;;;;;8237207;28;20057;-72
2023/01/14 06:23:20;;;;;;;17.02;2.95;;;;;;;;;;8255842;28;20041;-72
2023/01/14 06:27:20;;;;;;;21.98;3.05;;;;;;;;;;8255985;28;20103;-72
2023/01/14 06:31:20;;;;;;;13.15;2.63;;;;;;;;;;8254546;28;20065;-72
2023/01/14 06:35:21;;;;;;;9.48;2.10;;;;;;;;;;8255583;28;21074;-72
2023/01/14 06:39:21;;;;;;;10.90;2.20;;;;;;;;;;8253447;28;20029;-73
2023/01/14 06:43:21;;;;;;;16.48;2.55;;;;;;;;;;8254232;28;20152;-72
2023/01/14 06:47:22;;;;;;;20.25;2.78;;;;;;;;;;8254251;28;20049;-72
2023/01/14 06:51:22;;;;;;;8.93;2.15;;;;;;;;;;8252758;28;20030;-72
2023/01/14 06:55:22;;;;;;;13.20;2.50;;;;;;;;;;8252970;28;20145;-72
2023/01/14 06:59:22;;;;;;;15.40;2.83;;;;;;;;;;8253704;28;20264;-72
2023/01/14 07:03:22;;;;;;;12.55;2.33;;;;;;;;;;8254433;28;20037;-71
2023/01/14 07:07:23;;;;;;;10.20;2.60;;;;;;;;;;8253738;28;20076;-72
2023/01/14 07:11:23;;;;;;;16.70;2.55;;;;;;;;;;8253163;28;20277;-72
2023/01/14 07:15:23;;;;;;;14.32;2.50;;;;;;;;;;8245875;28;20084;-73
2023/01/14 07:19:23;;;;;;;12.73;2.55;;;;;;;;;;8246625;28;20025;-73
2023/01/14 07:23:24;;;;;;;17.30;2.80;;;;;;;;;;8237561;28;20032;-73
2023/01/14 07:27:24;;;;;;;11.02;2.03;;;;;;;;;;8249639;28;20021;-73
2023/01/14 07:31:24;;;;;;;11.18;2.33;;;;;;;;;;8251054;28;20041;-74
2023/01/14 07:35:25;;;;;;;13.30;2.70;;;;;;;;;;8232046;28;20049;-72
2023/01/14 07:39:25;;;;;;;14.18;2.42;;;;;;;;;;8251199;28;20128;-72
2023/01/14 07:43:25;;;;;;;11.75;2.15;;;;;;;;;;8230982;28;20554;-71
2023/01/14 07:47:26;;;;;;;12.95;2.30;;;;;;;;;;8249906;28;20042;-72
2023/01/14 07:51:26;;;;;;;11.98;2.22;;;;;;;;;;8249268;28;20593;-72
2023/01/14 07:55:26;;;;;;;10.25;1.73;;;;;;;;;;8248850;28;20029;-71
2023/01/14 07:59:26;;;;;;;7.72;2.08;;;;;;;;;;8250759;28;20037;-71
2023/01/14 08:03:27;;;;;;;7.25;1.85;;;;;;;;;;8233203;28;20073;-73
2023/01/14 08:07:27;;;;;;;12.53;2.27;;;;;;;;;;8248909;28;20033;-73
2023/01/14 08:11:28;;;;;;;10.48;1.73;;;;;;;;;;8250271;28;20379;-73
2023/01/14 08:15:29;;;;;;;7.82;2.17;;;;;;;;;;8248257;28;20046;-73
2023/01/14 08:19:29;;;;;;;7.88;1.70;;;;;;;;;;8250912;28;20029;-73
2023/01/14 08:23:30;;;;;;;4.30;1.42;;;;;;;;;;8254196;28;20018;-72
2023/01/14 08:27:30;;;;;;;4.15;1.52;;;;;;;;;;8255499;28;20053;-73
2023/01/14 08:31:30;;;;;;;5.88;1.50;;;;;;;;;;8255115;28;20106;-72
2023/01/14 08:35:31;;;;;;;5.38;1.50;;;;;;;;;;8254281;28;20037;-72
2023/01/14 08:39:31;;;;;;;4.28;1.70;;;;;;;;;;8238069;28;20026;-76
2023/01/14 08:43:31;;;;;;;6.25;1.38;;;;;;;;;;8254869;28;20033;-72
2023/01/14 08:47:31;;;;;;;5.63;1.40;;;;;;;;;;8236455;28;20516;-72
2023/01/14 08:51:31;;;;;;;5.00;1.63;;;;;;;;;;8255812;28;20060;-72
2023/01/14 08:55:31;;;;;;;6.00;1.48;;;;;;;;;;8256635;28;21444;-72
2023/01/14 08:59:32;;;;;;;12.35;2.00;;;;;;;;;;8253256;28;20022;-72
2023/01/14 09:03:33;;;;;;;5.70;1.52;;;;;;;;;;8238011;28;20127;-72
2023/01/14 09:17:13;;;;;;;4.22;1.30;;;;;;;;;;8253343;28;20104;-73
2023/01/14 09:20:42;;;;;;;3.38;1.10;;;;;;;;;;8236125;28;20049;-72
2023/01/14 09:24:42;;;;;;;3.85;1.52;;;;;;;;;;8257840;28;20026;-72
2023/01/14 09:28:42;;;;;;;3.15;1.20;;;;;;;;;;8233838;28;20033;-73
2023/01/14 09:32:44;;;;;;;2.70;1.20;;;;;;;;;;8253029;28;20690;-73
2023/01/14 09:36:44;;;;;;;2.58;0.95;;;;;;;;;;8254891;28;20279;-73
2023/01/14 09:40:45;;;;;;;5.00;1.47;;;;;;;;;;8253346;28;20113;-72
2023/01/14 09:44:45;;;;;;;4.85;1.23;;;;;;;;;;8255026;28;20273;-73
2023/01/14 09:48:47;;;;;;;4.63;1.33;;;;;;;;;;8253419;28;20033;-73
2023/01/14 09:52:50;;;;;;;2.78;1.20;;;;;;;;;;8251475;28;20030;-72
2023/01/14 09:56:50;;;;;;;5.00;1.20;;;;;;;;;;8233771;28;20026;-72
2023/01/14 10:01:07;;;;;;;4.47;1.30;;;;;;;;;;8254228;28;20048;-73
2023/01/14 10:05:07;;;;;;;4.28;1.30;;;;;;;;;;8253695;28;20036;-72
2023/01/14 10:09:12;;;;;;;4.43;1.20;;;;;;;;;;8253178;28;20034;-73
2023/01/14 10:13:17;;;;;;;6.18;1.38;;;;;;;;;;8253702;28;20072;-74
2023/01/14 10:17:19;;;;;;;3.20;1.23;;;;;;;;;;8253586;28;20121;-74
2023/01/14 10:21:24;;;;;;;3.90;1.10;;;;;;;;;;8252974;28;20140;-73
2023/01/14 10:25:24;;;;;;;3.40;1.13;;;;;;;;;;8252333;28;20030;-73
2023/01/14 10:29:28;;;;;;;2.55;0.80;;;;;;;;;;8254253;28;20030;-73
2023/01/14 10:33:28;;;;;;;2.58;1.05;;;;;;;;;;8254071;28;20042;-74
2023/01/14 10:37:28;;;;;;;4.33;1.10;;;;;;;;;;8237603;28;20732;-73
2023/01/14 10:45:47;;;;;;;2.70;1.20;;;;;;;;;;8251270;28;20046;-73
2023/01/14 10:49:58;;;;;;;3.25;1.00;;;;;;;;;;8252369;28;20061;-73
2023/01/14 10:54:08;;;;;;;1.83;1.10;;;;;;;;;;8253613;28;20031;-73
2023/01/14 10:58:13;;;;;;;2.17;0.98;;;;;;;;;;8227167;28;20029;-73
2023/01/14 11:02:32;;;;;;;1.75;0.73;;;;;;;;;;8228983;28;20040;-72
2023/01/14 11:06:32;;;;;;;4.38;1.38;;;;;;;;;;8224756;28;20029;-73
2023/01/14 11:10:32;;;;;;;5.15;1.00;;;;;;;;;;8250483;28;20141;-73
2023/01/14 11:14:37;;;;;;;4.47;1.13;;;;;;;;;;8251774;28;20772;-73
2023/01/14 11:18:47;;;;;;;3.17;0.88;;;;;;;;;;8248612;28;20045;-73
2023/01/14 11:22:54;;;;;;;5.45;0.98;;;;;;;;;;8252807;28;20867;-72
2023/01/14 11:27:01;;;;;;;3.25;1.00;;;;;;;;;;8250152;28;20022;-73
2023/01/14 11:31:01;;;;;;;7.55;0.90;;;;;;;;;;8250375;28;20037;-73
2023/01/14 11:35:09;;;;;;;4.85;1.00;;;;;;;;;;8231984;28;20473;-72
2023/01/14 11:39:12;;;;;;;5.95;1.17;;;;;;;;;;8229160;28;20053;-73
2023/01/14 11:43:13;;;;;;;2.42;1.20;;;;;;;;;;8250022;28;20029;-73
2023/01/14 11:47:14;;;;;;;3.47;1.00;;;;;;;;;;8251405;28;20038;-73
2023/01/14 11:51:18;;;;;;;8.60;1.35;;;;;;;;;;8250468;28;20688;-73
2023/01/14 11:55:19;;;;;;;5.32;1.02;;;;;;;;;;8249336;28;20116;-73
2023/01/14 11:59:29;;;;;;;3.05;1.60;;;;;;;;;;8261386;28;20034;-73
2023/01/14 12:03:39;;;;;;;4.65;1.40;;;;;;;;;;8258937;28;20779;-73
2023/01/14 12:07:43;;;;;;;7.18;1.83;;;;;;;;;;8260781;28;20053;-73
2023/01/14 12:12:03;;;;;;;6.95;3.08;;;;;;;;;;8262251;28;20028;-73
2023/01/14 12:20:28;;;;;;;4.03;1.23;;;;;;;;;;8261142;28;20029;-73
2023/01/14 12:24:46;;;;;;;4.63;1.90;;;;;;;;;;8244622;28;20018;-73
2023/01/14 12:28:50;;;;;;;4.55;1.30;;;;;;;;;;8262452;28;20474;-73
2023/01/14 12:32:57;;;;;;;2.90;1.10;;;;;;;;;;8263506;28;20034;-73
2023/01/14 12:37:20;;;;;;;1.08;0.70;;;;;;;;;;8259774;28;20211;-73
2023/01/14 12:46:05;;;;;;;5.97;1.15;;;;;;;;;;8257476;28;20096;-73
2023/01/14 12:50:08;;;;;;;5.18;0.95;;;;;;;;;;8261628;28;20965;-73
2023/01/14 12:54:17;;;;;;;3.78;0.73;;;;;;;;;;8257292;28;20824;-73
2023/01/14 12:58:19;;;;;;;2.22;0.80;;;;;;;;;;8260599;28;20694;-73
2023/01/14 13:02:24;;;;;;;9.23;1.75;;;;;;;;;;8259384;28;20033;-73
2023/01/14 13:06:34;;;;;;;2.55;1.00;;;;;;;;;;8258323;28;20025;-73
2023/01/14 13:10:39;;;;;;;3.90;1.25;;;;;;;;;;8235782;28;20018;-73
2023/01/14 13:14:39;;;;;;;4.97;1.10;;;;;;;;;;8255101;28;20036;-73
2023/01/14 13:18:40;;;;;;;2.97;0.98;;;;;;;;;;8251665;28;20037;-74
2023/01/14 13:22:45;;;;;;;3.90;1.00;;;;;;;;;;8253941;28;20097;-73
2023/01/14 13:26:46;;;;;;;2.80;1.17;;;;;;;;;;8254098;28;20538;-73
2023/01/14 13:30:46;;;;;;;1.40;0.73;;;;;;;;;;8253167;28;20048;-73
2023/01/14 13:35:00;;;;;;;5.03;0.95;;;;;;;;;;8252720;28;20014;-74
2023/01/14 13:39:05;;;;;;;4.25;1.20;;;;;;;;;;8254048;28;20128;-73
2023/01/14 13:43:07;;;;;;;2.13;0.90;;;;;;;;;;8254143;28;20454;-73
2023/01/14 13:47:20;;;;;;;4.97;1.23;;;;;;;;;;8253555;28;20084;-73
2023/01/14 13:51:39;;;;;;;1.23;0.80;;;;;;;;;;8253338;28;20045;-73
2023/01/14 13:55:47;;;;;;;2.63;1.00;;;;;;;;;;8234521;28;20041;-73
2023/01/14 13:59:53;;;;;;;6.03;0.90;;;;;;;;;;8255334;28;20022;-73
2023/01/14 14:03:54;;;;;;;2.83;0.90;;;;;;;;;;8248440;28;20858;-73
2023/01/14 14:08:07;;;;;;;3.33;1.10;;;;;;;;;;8255444;28;20037;-73
2023/01/14 14:16:57;;;;;;;2.17;1.00;;;;;;;;;;8257101;28;20077;-73
2023/01/14 14:20:58;;;;;;;2.47;1.00;;;;;;;;;;8254417;28;20030;-73
2023/01/14 14:24:59;;;;;;;1.88;0.95;;;;;;;;;;8256386;28;20535;-73
2023/01/14 14:29:06;;;;;;;2.30;1.30;;;;;;;;;;8255167;28;20022;-73
2023/01/14 14:33:26;;;;;;;3.50;1.55;;;;;;;;;;8255134;28;20517;-73
2023/01/14 14:37:33;;;;;;;3.17;1.60;;;;;;;;;;8249665;28;20018;-73
2023/01/14 14:41:37;;;;;;;3.40;1.63;;;;;;;;;;8253112;28;20021;-73
2023/01/14 14:45:38;;;;;;;4.40;2.78;;;;;;;;;;8251160;28;20061;-73
2023/01/14 14:49:38;;;;;;;2.83;1.38;;;;;;;;;;8250719;28;20033;-73
2023/01/14 14:53:44;;;;;;;8.88;3.45;;;;;;;;;;8254100;28;20037;-73
2023/01/14 14:57:44;;;;;;;3.05;1.10;;;;;;;;;;8251112;28;20025;-73
2023/01/14 15:01:46;;;;;;;2.83;1.30;;;;;;;;;;8252942;28;20034;-73
2023/01/14 15:05:46;;;;;;;2.78;1.23;;;;;;;;;;8251162;28;20030;-73
2023/01/14 15:09:47;;;;;;;3.03;1.90;;;;;;;;;;8250758;28;20032;-73
2023/01/14 15:13:47;;;;;;;3.78;2.00;;;;;;;;;;8251814;28;20064;-73
2023/01/14 15:17:48;;;;;;;1.93;1.30;;;;;;;;;;8250292;28;20038;-73
2023/01/14 15:21:48;;;;;;;1.30;0.80;;;;;;;;;;8251797;28;20816;-73
2023/01/14 15:25:49;;;;;;;3.60;1.27;;;;;;;;;;8249160;28;20570;-73
2023/01/14 15:30:00;;;;;;;2.70;1.08;;;;;;;;;;8249942;28;20053;-74
2023/01/14 15:34:01;;;;;;;2.33;1.17;;;;;;;;;;8249472;28;20128;-74
2023/01/14 15:38:07;;;;;;;3.95;1.20;;;;;;;;;;8238656;28;20911;-73
2023/01/14 15:42:07;;;;;;;6.22;1.38;;;;;;;;;;8249747;28;20029;-73
2023/01/14 15:46:13;;;;;;;4.55;1.30;;;;;;;;;;8250468;28;20038;-73
2023/01/14 15:50:20;;;;;;;4.53;1.30;;;;;;;;;;8249031;28;20309;-73
2023/01/14 15:54:34;;;;;;;3.95;1.42;;;;;;;;;;8249839;28;20018;-72
2023/01/14 15:58:35;;;;;;;3.22;1.17;;;;;;;;;;8245947;28;20026;-73
2023/01/14 16:02:36;;;;;;;1.60;0.90;;;;;;;;;;8248996;28;20082;-73
2023/01/14 16:06:41;;;;;;;3.25;1.10;;;;;;;;;;8248702;28;20025;-73
2023/01/14 16:10:41;;;;;;;3.25;1.27;;;;;;;;;;8246861;28;20030;-73
2023/01/14 16:14:44;;;;;;;5.13;1.30;;;;;;;;;;8250719;28;20034;-73
2023/01/14 16:18:45;;;;;;;5.55;1.10;;;;;;;;;;8249602;28;20554;-73
2023/01/14 16:22:45;;;;;;;2.88;1.02;;;;;;;;;;8250845;28;20034;-73
2023/01/14 16:26:46;;;;;;;1.45;0.85;;;;;;;;;;8250035;28;20034;-73
2023/01/14 16:30:46;;;;;;;1.25;0.98;;;;;;;;;;8248978;28;20131;-73
2023/01/14 16:34:47;;;;;;;1.20;1.10;;;;;;;;;;8249905;28;20053;-73
2023/01/14 16:38:47;;;;;;;6.90;1.60;;;;;;;;;;8233561;28;20065;-73
2023/01/14 16:42:49;;;;;;;1.77;1.08;;;;;;;;;;8252274;28;20123;-73
2023/01/14 16:46:49;;;;;;;1.50;1.05;;;;;;;;;;8254679;28;20155;-73
2023/01/14 16:50:51;;;;;;;1.08;0.90;;;;;;;;;;8254648;28;20038;-73
2023/01/14 16:54:51;;;;;;;3.72;1.00;;;;;;;;;;8254380;28;20568;-74
2023/01/14 16:58:53;;;;;;;1.00;0.90;;;;;;;;;;8250894;28;20025;-73
2023/01/14 17:02:53;;;;;;;2.38;1.17;;;;;;;;;;8253685;28;20030;-73
2023/01/14 17:06:54;;;;;;;6.22;1.42;;;;;;;;;;8255606;28;20056;-73
2023/01/14 17:10:54;;;;;;;3.20;1.25;;;;;;;;;;8255519;28;20026;-73
2023/01/14 17:14:54;;;;;;;2.08;1.08;;;;;;;;;;8254185;28;20866;-73
2023/01/14 17:18:54;;;;;;;1.95;1.20;;;;;;;;;;8252103;28;20116;-74
2023/01/14 17:22:55;;;;;;;2.83;1.10;;;;;;;;;;8235986;28;20088;-73
2023/01/14 17:26:55;;;;;;;2.28;0.90;;;;;;;;;;8236647;28;20272;-74
2023/01/14 17:30:56;;;;;;;1.20;1.10;;;;;;;;;;8235390;28;20122;-73
2023/01/14 17:34:57;;;;;;;3.28;1.40;;;;;;;;;;8252266;28;20088;-73
2023/01/14 17:38:57;;;;;;;1.95;0.90;;;;;;;;;;8252802;28;20022;-73
2023/01/14 17:42:58;;;;;;;1.10;0.98;;;;;;;;;;8253146;28;20041;-74
2023/01/14 17:46:58;;;;;;;2.60;1.17;;;;;;;;;;8253055;28;20041;-73
2023/01/14 17:51:00;;;;;;;1.98;1.10;;;;;;;;;;8252492;28;20088;-73
2023/01/14 17:55:00;;;;;;;1.65;1.20;;;;;;;;;;8252085;28;20038;-73
2023/01/14 17:59:00;;;;;;;4.32;1.17;;;;;;;;;;8226050;28;20026;-74
2023/01/14 18:03:00;;;;;;;0.95;0.80;;;;;;;;;;8251916;28;20128;-74
2023/01/14 18:07:01;;;;;;;2.42;0.90;;;;;;;;;;8251535;28;20037;-74
2023/01/14 18:11:02;;;;;;;3.17;1.10;;;;;;;;;;8235157;28;20029;-73
2023/01/14 18:15:02;;;;;;;2.28;0.95;;;;;;;;;;8251031;28;20034;-73
2023/01/14 18:19:03;;;;;;;2.78;0.98;;;;;;;;;;8252024;28;20854;-73
2023/01/14 18:23:03;;;;;;;1.90;1.10;;;;;;;;;;8250387;28;20030;-73
2023/01/14 18:27:03;;;;;;;3.00;1.25;;;;;;;;;;8249744;28;20140;-73
2023/01/14 18:31:04;;;;;;;1.50;0.98;;;;;;;;;;8250995;28;20042;-73
2023/01/14 18:35:04;;;;;;;2.47;0.80;;;;;;;;;;8249737;28;21038;-73
2023/01/14 18:39:05;;;;;;;0.80;0.80;;;;;;;;;;8247329;28;20025;-73
2023/01/14 18:43:06;;;;;;;2.35;0.95;;;;;;;;;;8230691;28;20693;-74
2023/01/14 18:47:08;;;;;;;1.50;1.20;;;;;;;;;;8221059;28;21014;-74
2023/01/14 18:51:09;;;;;;;1.50;1.25;;;;;;;;;;8249230;28;20889;-73
2023/01/14 18:55:11;;;;;;;2.35;1.40;;;;;;;;;;8247740;28;20638;-73
2023/01/14 18:59:11;;;;;;;1.48;1.00;;;;;;;;;;8248634;28;20097;-72
2023/01/14 19:03:12;;;;;;;1.23;1.10;;;;;;;;;;8246678;28;20073;-73
2023/01/14 19:07:12;;;;;;;1.10;1.00;;;;;;;;;;8227076;28;20021;-73
2023/01/14 19:15:31;;;;;;;2.35;1.45;;;;;;;;;;8241275;28;20186;-73
2023/01/14 19:19:32;;;;;;;2.97;1.63;;;;;;;;;;8244671;28;20022;-73
2023/01/14 19:23:32;;;;;;;1.00;0.90;;;;;;;;;;8250295;28;20816;-73
2023/01/14 19:27:32;;;;;;;2.17;1.20;;;;;;;;;;8249335;28;20046;-73
2023/01/14 19:31:32;;;;;;;2.22;1.10;;;;;;;;;;8244995;28;20037;-73
2023/01/14 19:35:33;;;;;;;1.52;0.90;;;;;;;;;;8236590;28;20081;-73
2023/01/14 19:39:33;;;;;;;1.73;1.17;;;;;;;;;;8245284;28;20048;-73
2023/01/14 19:43:35;;;;;;;2.20;1.10;;;;;;;;;;8244061;28;20060;-73
2023/01/14 19:47:36;;;;;;;1.80;1.30;;;;;;;;;;8246254;28;20941;-72
2023/01/14 19:51:37;;;;;;;2.47;1.10;;;;;;;;;;8229209;28;20029;-73
2023/01/14 19:55:37;;;;;;;0.90;0.90;;;;;;;;;;8245148;28;20679;-73
2023/01/14 19:59:37;;;;;;;1.00;0.90;;;;;;;;;;8250667;28;20029;-73
2023/01/14 20:03:41;;;;;;;2.28;1.15;;;;;;;;;;8248295;28;20037;-73
2023/01/14 20:07:41;;;;;;;2.13;0.95;;;;;;;;;;8249802;28;20030;-73
2023/01/14 20:11:42;;;;;;;1.70;0.98;;;;;;;;;;8249332;28;20128;-73
2023/01/14 20:15:42;;;;;;;1.38;1.00;;;;;;;;;;8244733;28;20708;-73
2023/01/14 20:19:42;;;;;;;0.80;0.80;;;;;;;;;;8252935;28;20855;-73
2023/01/14 20:23:43;;;;;;;1.63;1.20;;;;;;;;;;8251467;28;20281;-72
2023/01/14 20:27:43;;;;;;;1.23;0.90;;;;;;;;;;8252858;28;20022;-73
2023/01/14 20:31:43;;;;;;;1.60;0.80;;;;;;;;;;8236521;28;20045;-72
2023/01/14 20:35:44;;;;;;;1.88;1.10;;;;;;;;;;8253256;28;20029;-72
2023/01/14 20:39:44;;;;;;;0.80;0.80;;;;;;;;;;8251350;28;20072;-72
2023/01/14 20:43:44;;;;;;;1.83;0.90;;;;;;;;;;8255049;28;20109;-72
2023/01/14 20:52:03;;;;;;;2.70;1.00;;;;;;;;;;8253212;28;20060;-72
2023/01/14 20:56:07;;;;;;;0.80;0.80;;;;;;;;;;8251651;28;20033;-72
2023/01/14 21:00:07;;;;;;;;;;;;;;;;;;8252080;28;20140;-72
2023/01/14 21:04:07;;;;;;;0.88;0.88;;;;;;;;;;8249442;28;20997;-71
2023/01/14 21:08:08;;;;;;;2.05;1.00;;;;;;;;;;8254300;28;20387;-71
2023/01/14 21:12:10;;;;;;;1.08;0.80;;;;;;;;;;8238676;28;20116;-71
2023/01/14 21:24:48;;;;;;;0.90;0.80;;;;;;;;;;8250978;28;20056;-71
2023/01/14 21:28:48;;;;;;;0.80;0.80;;;;;;;;;;8233587;28;20009;-72
2023/01/14 21:32:49;;;;;;;0.98;0.75;;;;;;;;;;8250918;28;20155;-72
2023/01/14 21:36:49;;;;;;;0.80;0.75;;;;;;;;;;8249827;28;20033;-72
2023/01/14 21:43:24;;;;;;;0.70;0.70;;;;;;;;;;8253639;28;20033;-73
2023/01/14 21:45:09;;;;;;;0.80;0.80;;;;;;;;;;8247874;28;20381;-73
2023/01/14 21:49:10;;;;;;;1.02;0.65;;;;;;;;;;8250067;28;20539;-73
2023/01/14 21:53:12;;;;;;;0.88;0.70;;;;;;;;;;8252232;28;20575;-73
2023/01/14 21:57:13;;;;;;;1.40;0.70;;;;;;;;;;8252250;28;20013;-73
2023/01/14 22:01:19;;;;;;;0.73;0.70;;;;;;;;;;8255366;28;20041;-73
2023/01/14 22:05:19;;;;;;;0.60;0.60;;;;;;;;;;8255197;28;20026;-73
2023/01/14 22:09:20;;;;;;;0.60;0.55;;;;;;;;;;8254676;28;20029;-72
2023/01/14 22:13:20;;;;;;;0.60;0.60;;;;;;;;;;8254010;28;20030;-73
2023/01/14 22:17:21;;;;;;;0.60;0.60;;;;;;;;;;8239961;28;20037;-73
2023/01/14 22:21:21;;;;;;;0.77;0.77;;;;;;;;;;8253454;28;20029;-73
2023/01/14 22:25:21;;;;;;;1.08;0.55;;;;;;;;;;8241288;28;21011;-73
2023/01/14 22:29:21;;;;;;;0.60;0.60;;;;;;;;;;8255385;28;20044;-73
2023/01/14 22:33:22;;;;;;;0.77;0.68;;;;;;;;;;8255542;28;20034;-73
2023/01/14 22:37:23;;;;;;;0.60;0.60;;;;;;;;;;8256956;28;20022;-73
2023/01/14 22:41:23;;;;;;;0.50;0.50;;;;;;;;;;8255192;28;20026;-73
2023/01/14 22:45:23;;;;;;;0.57;0.50;;;;;;;;;;8255872;28;20139;-73
2023/01/14 22:49:23;;;;;;;0.60;0.60;;;;;;;;;;8253561;28;20101;-73
2023/01/14 22:53:23;;;;;;;0.47;0.47;;;;;;;;;;8255562;28;20351;-73
2023/01/14 22:57:24;;;;;;;3.10;0.50;;;;;;;;;;8254247;28;20592;-73
2023/01/14 23:01:24;;;;;;;0.45;0.45;;;;;;;;;;8252723;28;20092;-74
2023/01/14 23:05:24;;;;;;;0.47;0.47;;;;;;;;;;8253138;28;20029;-73
2023/01/14 23:09:24;;;;;;;0.50;0.50;;;;;;;;;;8254298;28;20508;-74
2023/01/14 23:13:24;;;;;;;1.23;0.85;;;;;;;;;;8253369;28;20030;-73
2023/01/14 23:17:27;;;;;;;0.85;0.40;;;;;;;;;;8253721;28;20034;-73
2023/01/14 23:25:46;;;;;;;0.50;0.50;;;;;;;;;;8253794;28;20674;-73
2023/01/14 23:29:47;;;;;;;0.50;0.50;;;;;;;;;;8253800;28;20037;-73
2023/01/14 23:33:49;;;;;;;0.40;0.40;;;;;;;;;;8252232;28;20049;-73
2023/01/14 23:37:49;;;;;;;0.60;0.60;;;;;;;;;;8254217;28;20033;-73
2023/01/14 23:41:49;;;;;;;0.77;0.47;;;;;;;;;;8252386;28;20018;-73
2023/01/14 23:45:49;;;;;;;1.60;0.60;;;;;;;;;;8252934;28;20038;-73
2023/01/14 23:49:49;;;;;;;0.68;0.65;;;;;;;;;;8252015;28;20656;-73
2023/01/14 23:53:50;;;;;;;0.40;0.40;;;;;;;;;;8252958;28;20030;-73
2023/01/14 23:57:50;;;;;;;0.57;0.57;;;;;;;;;;8252254;28;20928;-73
